sensor_id;sensor_type;location;lat;lon;timestamp;temperature;humidity
67133;HTU21D;54052;53.542;49.408;2022-08-23T00:01:56;20.18;64.78
67133;HTU21D;54052;53.542;49.408;2022-08-23T00:04:26;20.03;65.63
67133;HTU21D;54052;53.542;49.408;2022-08-23T00:06:53;20.00;66.43
67133;HTU21D;54052;53.542;49.408;2022-08-23T00:09:21;19.86;66.10
67133;HTU21D;54052;53.542;49.408;2022-08-23T00:14:33;19.73;66.63
67133;HTU21D;54052;53.542;49.408;2022-08-23T00:16:59;19.63;67.45
67133;HTU21D;54052;53.542;49.408;2022-08-23T00:19:26;19.52;67.62
67133;HTU21D;54052;53.542;49.408;2022-08-23T00:21:53;19.41;68.51
67133;HTU21D;54052;53.542;49.408;2022-08-23T00:24:20;19.31;67.60
67133;HTU21D;54052;53.542;49.408;2022-08-23T00:27:13;19.25;68.39
67133;HTU21D;54052;53.542;49.408;2022-08-23T00:29:49;19.23;68.42
67133;HTU21D;54052;53.542;49.408;2022-08-23T00:32:25;19.22;66.34
67133;HTU21D;54052;53.542;49.408;2022-08-23T00:34:51;19.35;65.48
67133;HTU21D;54052;53.542;49.408;2022-08-23T00:37:18;19.42;65.08
67133;HTU21D;54052;53.542;49.408;2022-08-23T00:39:44;19.45;65.12
67133;HTU21D;54052;53.542;49.408;2022-08-23T00:42:14;19.47;64.93
67133;HTU21D;54052;53.542;49.408;2022-08-23T00:45:19;19.47;65.11
67133;HTU21D;54052;53.542;49.408;2022-08-23T00:48:06;19.43;65.36
67133;HTU21D;54052;53.542;49.408;2022-08-23T00:50:52;19.35;66.48
67133;HTU21D;54052;53.542;49.408;2022-08-23T00:53:31;19.22;66.72
67133;HTU21D;54052;53.542;49.408;2022-08-23T00:56:01;19.15;67.08
67133;HTU21D;54052;53.542;49.408;2022-08-23T00:58:31;19.10;68.07
67133;HTU21D;54052;53.542;49.408;2022-08-23T01:00:59;18.97;67.68
67133;HTU21D;54052;53.542;49.408;2022-08-23T01:03:27;18.87;68.10
67133;HTU21D;54052;53.542;49.408;2022-08-23T01:06:05;18.76;69.23
67133;HTU21D;54052;53.542;49.408;2022-08-23T01:08:34;18.62;70.39
67133;HTU21D;54052;53.542;49.408;2022-08-23T01:11:06;18.50;70.79
67133;HTU21D;54052;53.542;49.408;2022-08-23T01:13:38;18.41;71.51
67133;HTU21D;54052;53.542;49.408;2022-08-23T01:16:13;18.30;71.29
67133;HTU21D;54052;53.542;49.408;2022-08-23T01:18:41;18.21;71.37
67133;HTU21D;54052;53.542;49.408;2022-08-23T01:23:39;18.10;72.03
67133;HTU21D;54052;53.542;49.408;2022-08-23T01:26:06;18.07;72.26
67133;HTU21D;54052;53.542;49.408;2022-08-23T01:28:33;18.02;72.08
67133;HTU21D;54052;53.542;49.408;2022-08-23T01:31:00;17.97;72.61
67133;HTU21D;54052;53.542;49.408;2022-08-23T01:33:27;17.92;72.55
67133;HTU21D;54052;53.542;49.408;2022-08-23T01:35:55;17.94;72.64
67133;HTU21D;54052;53.542;49.408;2022-08-23T01:38:23;17.90;73.09
67133;HTU21D;54052;53.542;49.408;2022-08-23T01:40:49;17.88;72.87
67133;HTU21D;54052;53.542;49.408;2022-08-23T01:43:17;17.88;72.83
67133;HTU21D;54052;53.542;49.408;2022-08-23T01:45:45;17.91;72.64
67133;HTU21D;54052;53.542;49.408;2022-08-23T01:48:12;17.92;72.38
67133;HTU21D;54052;53.542;49.408;2022-08-23T01:50:38;17.91;72.86
67133;HTU21D;54052;53.542;49.408;2022-08-23T01:53:04;17.87;72.96
67133;HTU21D;54052;53.542;49.408;2022-08-23T01:55:31;17.88;73.00
67133;HTU21D;54052;53.542;49.408;2022-08-23T01:57:59;17.85;73.70
67133;HTU21D;54052;53.542;49.408;2022-08-23T02:00:31;17.84;73.36
67133;HTU21D;54052;53.542;49.408;2022-08-23T02:02:58;17.91;73.38
67133;HTU21D;54052;53.542;49.408;2022-08-23T02:05:26;17.95;73.04
67133;HTU21D;54052;53.542;49.408;2022-08-23T02:07:52;18.03;72.55
67133;HTU21D;54052;53.542;49.408;2022-08-23T02:10:18;18.10;72.34
67133;HTU21D;54052;53.542;49.408;2022-08-23T02:12:44;18.09;71.62
67133;HTU21D;54052;53.542;49.408;2022-08-23T02:15:12;18.11;71.67
67133;HTU21D;54052;53.542;49.408;2022-08-23T02:17:39;18.19;71.44
67133;HTU21D;54052;53.542;49.408;2022-08-23T02:20:06;18.23;72.07
67133;HTU21D;54052;53.542;49.408;2022-08-23T02:22:33;18.23;72.42
67133;HTU21D;54052;53.542;49.408;2022-08-23T02:24:59;18.26;72.16
67133;HTU21D;54052;53.542;49.408;2022-08-23T02:27:26;18.28;72.29
67133;HTU21D;54052;53.542;49.408;2022-08-23T02:29:52;18.33;72.18
67133;HTU21D;54052;53.542;49.408;2022-08-23T02:32:18;18.40;72.28
67133;HTU21D;54052;53.542;49.408;2022-08-23T02:34:45;18.46;71.58
67133;HTU21D;54052;53.542;49.408;2022-08-23T02:37:13;18.54;71.25
67133;HTU21D;54052;53.542;49.408;2022-08-23T02:39:39;18.59;69.68
67133;HTU21D;54052;53.542;49.408;2022-08-23T02:42:07;18.64;68.95
67133;HTU21D;54052;53.542;49.408;2022-08-23T02:44:33;18.72;69.04
67133;HTU21D;54052;53.542;49.408;2022-08-23T02:47:03;18.81;68.36
67133;HTU21D;54052;53.542;49.408;2022-08-23T02:49:32;18.88;68.36
67133;HTU21D;54052;53.542;49.408;2022-08-23T02:51:57;19.01;69.28
67133;HTU21D;54052;53.542;49.408;2022-08-23T02:54:23;19.10;69.04
67133;HTU21D;54052;53.542;49.408;2022-08-23T02:56:49;19.22;67.68
67133;HTU21D;54052;53.542;49.408;2022-08-23T02:59:17;19.36;68.86
67133;HTU21D;54052;53.542;49.408;2022-08-23T03:01:43;19.47;68.69
67133;HTU21D;54052;53.542;49.408;2022-08-23T03:04:10;19.62;68.22
67133;HTU21D;54052;53.542;49.408;2022-08-23T03:06:37;19.79;67.38
67133;HTU21D;54052;53.542;49.408;2022-08-23T03:09:04;19.95;66.97
67133;HTU21D;54052;53.542;49.408;2022-08-23T03:11:31;20.13;66.67
67133;HTU21D;54052;53.542;49.408;2022-08-23T03:13:57;20.25;66.40
67133;HTU21D;54052;53.542;49.408;2022-08-23T03:16:26;20.39;66.69
67133;HTU21D;54052;53.542;49.408;2022-08-23T03:18:52;20.46;66.37
67133;HTU21D;54052;53.542;49.408;2022-08-23T03:21:19;20.55;64.92
67133;HTU21D;54052;53.542;49.408;2022-08-23T03:23:46;20.61;64.24
67133;HTU21D;54052;53.542;49.408;2022-08-23T03:26:14;20.66;64.53
67133;HTU21D;54052;53.542;49.408;2022-08-23T03:28:43;20.81;64.12
67133;HTU21D;54052;53.542;49.408;2022-08-23T03:31:10;20.99;63.13
67133;HTU21D;54052;53.542;49.408;2022-08-23T03:33:37;21.15;62.24
67133;HTU21D;54052;53.542;49.408;2022-08-23T03:36:05;21.21;61.72
67133;HTU21D;54052;53.542;49.408;2022-08-23T03:38:32;21.27;61.60
67133;HTU21D;54052;53.542;49.408;2022-08-23T03:40:59;21.36;61.33
67133;HTU21D;54052;53.542;49.408;2022-08-23T03:43:26;21.57;60.89
67133;HTU21D;54052;53.542;49.408;2022-08-23T03:45:52;21.74;60.40
67133;HTU21D;54052;53.542;49.408;2022-08-23T03:48:18;21.81;60.03
67133;HTU21D;54052;53.542;49.408;2022-08-23T03:50:44;21.91;59.61
67133;HTU21D;54052;53.542;49.408;2022-08-23T03:53:11;22.06;59.20
67133;HTU21D;54052;53.542;49.408;2022-08-23T03:55:38;22.13;58.98
67133;HTU21D;54052;53.542;49.408;2022-08-23T03:58:05;22.20;58.62
67133;HTU21D;54052;53.542;49.408;2022-08-23T04:00:31;22.29;58.41
67133;HTU21D;54052;53.542;49.408;2022-08-23T04:02:57;22.42;57.96
67133;HTU21D;54052;53.542;49.408;2022-08-23T04:05:23;22.58;57.47
67133;HTU21D;54052;53.542;49.408;2022-08-23T04:07:49;22.75;57.27
67133;HTU21D;54052;53.542;49.408;2022-08-23T04:10:16;22.83;57.61
67133;HTU21D;54052;53.542;49.408;2022-08-23T04:12:42;22.94;57.41
67133;HTU21D;54052;53.542;49.408;2022-08-23T04:15:08;22.93;57.11
67133;HTU21D;54052;53.542;49.408;2022-08-23T04:17:34;23.07;57.32
67133;HTU21D;54052;53.542;49.408;2022-08-23T04:20:03;23.23;56.62
67133;HTU21D;54052;53.542;49.408;2022-08-23T04:22:29;23.28;56.39
67133;HTU21D;54052;53.542;49.408;2022-08-23T04:24:56;23.40;56.39
67133;HTU21D;54052;53.542;49.408;2022-08-23T04:27:22;23.60;55.81
67133;HTU21D;54052;53.542;49.408;2022-08-23T04:29:47;23.74;55.33
67133;HTU21D;54052;53.542;49.408;2022-08-23T04:32:15;23.76;54.90
67133;HTU21D;54052;53.542;49.408;2022-08-23T04:34:41;23.84;55.05
67133;HTU21D;54052;53.542;49.408;2022-08-23T04:37:10;23.91;54.68
67133;HTU21D;54052;53.542;49.408;2022-08-23T04:39:37;24.01;54.49
67133;HTU21D;54052;53.542;49.408;2022-08-23T04:42:22;24.17;54.10
67133;HTU21D;54052;53.542;49.408;2022-08-23T04:44:49;24.29;53.45
67133;HTU21D;54052;53.542;49.408;2022-08-23T04:47:15;24.32;52.92
67133;HTU21D;54052;53.542;49.408;2022-08-23T04:49:43;24.40;52.97
67133;HTU21D;54052;53.542;49.408;2022-08-23T04:52:11;24.53;52.69
67133;HTU21D;54052;53.542;49.408;2022-08-23T04:54:39;24.62;52.67
67133;HTU21D;54052;53.542;49.408;2022-08-23T04:57:05;24.71;52.35
67133;HTU21D;54052;53.542;49.408;2022-08-23T04:59:31;24.88;51.57
67133;HTU21D;54052;53.542;49.408;2022-08-23T05:01:57;24.99;51.48
67133;HTU21D;54052;53.542;49.408;2022-08-23T05:04:23;25.08;51.69
67133;HTU21D;54052;53.542;49.408;2022-08-23T05:06:49;25.20;50.96
67133;HTU21D;54052;53.542;49.408;2022-08-23T05:09:17;25.21;51.40
67133;HTU21D;54052;53.542;49.408;2022-08-23T05:11:43;25.31;51.16
67133;HTU21D;54052;53.542;49.408;2022-08-23T05:14:08;25.36;50.36
67133;HTU21D;54052;53.542;49.408;2022-08-23T05:16:35;25.44;49.96
67133;HTU21D;54052;53.542;49.408;2022-08-23T05:19:01;25.58;49.79
67133;HTU21D;54052;53.542;49.408;2022-08-23T05:21:27;25.68;49.68
67133;HTU21D;54052;53.542;49.408;2022-08-23T05:23:53;25.76;48.44
67133;HTU21D;54052;53.542;49.408;2022-08-23T05:26:20;25.90;48.28
67133;HTU21D;54052;53.542;49.408;2022-08-23T05:28:48;25.97;48.30
67133;HTU21D;54052;53.542;49.408;2022-08-23T05:31:18;25.98;48.73
67133;HTU21D;54052;53.542;49.408;2022-08-23T05:33:45;26.04;48.17
67133;HTU21D;54052;53.542;49.408;2022-08-23T05:36:12;26.08;47.66
67133;HTU21D;54052;53.542;49.408;2022-08-23T05:38:40;26.16;47.53
67133;HTU21D;54052;53.542;49.408;2022-08-23T05:41:06;26.23;47.86
67133;HTU21D;54052;53.542;49.408;2022-08-23T05:43:33;26.30;47.31
67133;HTU21D;54052;53.542;49.408;2022-08-23T05:48:30;26.40;48.76
67133;HTU21D;54052;53.542;49.408;2022-08-23T05:51:33;26.49;47.09
67133;HTU21D;54052;53.542;49.408;2022-08-23T05:54:03;26.51;47.10
67133;HTU21D;54052;53.542;49.408;2022-08-23T05:56:36;26.53;47.49
67133;HTU21D;54052;53.542;49.408;2022-08-23T05:59:05;26.64;47.05
67133;HTU21D;54052;53.542;49.408;2022-08-23T06:01:33;26.72;47.23
67133;HTU21D;54052;53.542;49.408;2022-08-23T06:04:01;26.81;46.38
67133;HTU21D;54052;53.542;49.408;2022-08-23T06:06:27;26.92;46.41
67133;HTU21D;54052;53.542;49.408;2022-08-23T06:08:53;26.94;46.60
67133;HTU21D;54052;53.542;49.408;2022-08-23T06:11:23;26.94;46.67
67133;HTU21D;54052;53.542;49.408;2022-08-23T06:13:52;26.96;46.42
67133;HTU21D;54052;53.542;49.408;2022-08-23T06:16:24;27.01;46.58
67133;HTU21D;54052;53.542;49.408;2022-08-23T06:18:52;27.09;46.31
67133;HTU21D;54052;53.542;49.408;2022-08-23T06:21:19;27.19;46.31
67133;HTU21D;54052;53.542;49.408;2022-08-23T06:23:46;27.24;46.21
67133;HTU21D;54052;53.542;49.408;2022-08-23T06:26:20;27.31;45.77
67133;HTU21D;54052;53.542;49.408;2022-08-23T06:28:49;27.39;45.24
67133;HTU21D;54052;53.542;49.408;2022-08-23T06:31:16;27.51;45.03
67133;HTU21D;54052;53.542;49.408;2022-08-23T06:34:02;27.68;44.95
67133;HTU21D;54052;53.542;49.408;2022-08-23T06:36:29;27.75;44.43
67133;HTU21D;54052;53.542;49.408;2022-08-23T06:38:55;27.80;44.19
67133;HTU21D;54052;53.542;49.408;2022-08-23T06:41:21;27.91;44.09
67133;HTU21D;54052;53.542;49.408;2022-08-23T06:43:47;27.97;43.61
67133;HTU21D;54052;53.542;49.408;2022-08-23T06:46:24;28.01;43.28
67133;HTU21D;54052;53.542;49.408;2022-08-23T06:48:51;28.05;43.44
67133;HTU21D;54052;53.542;49.408;2022-08-23T06:51:24;28.11;42.78
67133;HTU21D;54052;53.542;49.408;2022-08-23T06:53:54;28.15;41.98
67133;HTU21D;54052;53.542;49.408;2022-08-23T06:56:22;28.21;40.84
67133;HTU21D;54052;53.542;49.408;2022-08-23T06:58:54;28.26;40.41
67133;HTU21D;54052;53.542;49.408;2022-08-23T07:01:31;28.33;39.49
67133;HTU21D;54052;53.542;49.408;2022-08-23T07:03:58;28.39;40.38
67133;HTU21D;54052;53.542;49.408;2022-08-23T07:06:26;28.47;39.52
67133;HTU21D;54052;53.542;49.408;2022-08-23T07:08:53;28.59;39.39
67133;HTU21D;54052;53.542;49.408;2022-08-23T07:11:19;28.62;38.88
67133;HTU21D;54052;53.542;49.408;2022-08-23T07:13:46;28.69;38.79
67133;HTU21D;54052;53.542;49.408;2022-08-23T07:16:14;28.74;39.10
67133;HTU21D;54052;53.542;49.408;2022-08-23T07:18:43;28.89;39.04
67133;HTU21D;54052;53.542;49.408;2022-08-23T07:21:11;29.04;38.10
67133;HTU21D;54052;53.542;49.408;2022-08-23T07:23:38;29.11;38.00
67133;HTU21D;54052;53.542;49.408;2022-08-23T07:26:09;29.16;37.36
67133;HTU21D;54052;53.542;49.408;2022-08-23T07:28:36;29.22;36.97
67133;HTU21D;54052;53.542;49.408;2022-08-23T07:31:15;29.27;36.43
67133;HTU21D;54052;53.542;49.408;2022-08-23T07:33:43;29.36;36.79
67133;HTU21D;54052;53.542;49.408;2022-08-23T07:36:11;29.45;36.63
67133;HTU21D;54052;53.542;49.408;2022-08-23T07:38:38;29.51;34.27
67133;HTU21D;54052;53.542;49.408;2022-08-23T07:41:04;29.57;34.59
67133;HTU21D;54052;53.542;49.408;2022-08-23T07:43:32;29.51;34.37
67133;HTU21D;54052;53.542;49.408;2022-08-23T07:45:58;29.57;33.15
67133;HTU21D;54052;53.542;49.408;2022-08-23T07:48:24;29.62;33.21
67133;HTU21D;54052;53.542;49.408;2022-08-23T07:50:52;29.67;32.67
67133;HTU21D;54052;53.542;49.408;2022-08-23T07:53:19;29.71;31.93
67133;HTU21D;54052;53.542;49.408;2022-08-23T07:55:45;29.79;31.70
67133;HTU21D;54052;53.542;49.408;2022-08-23T07:58:11;29.80;32.43
67133;HTU21D;54052;53.542;49.408;2022-08-23T08:00:37;29.93;30.75
67133;HTU21D;54052;53.542;49.408;2022-08-23T08:03:03;29.93;31.68
67133;HTU21D;54052;53.542;49.408;2022-08-23T08:05:33;29.94;31.77
67133;HTU21D;54052;53.542;49.408;2022-08-23T08:08:00;30.03;31.27
67133;HTU21D;54052;53.542;49.408;2022-08-23T08:10:27;30.04;30.61
67133;HTU21D;54052;53.542;49.408;2022-08-23T08:12:53;29.96;31.22
67133;HTU21D;54052;53.542;49.408;2022-08-23T08:15:19;29.87;31.50
67133;HTU21D;54052;53.542;49.408;2022-08-23T08:17:47;29.94;30.34
67133;HTU21D;54052;53.542;49.408;2022-08-23T08:20:14;29.97;31.46
67133;HTU21D;54052;53.542;49.408;2022-08-23T08:22:41;30.00;31.28
67133;HTU21D;54052;53.542;49.408;2022-08-23T08:25:08;30.13;30.42
67133;HTU21D;54052;53.542;49.408;2022-08-23T08:27:35;30.38;28.71
67133;HTU21D;54052;53.542;49.408;2022-08-23T08:30:03;30.50;27.97
67133;HTU21D;54052;53.542;49.408;2022-08-23T08:32:29;30.59;28.53
67133;HTU21D;54052;53.542;49.408;2022-08-23T08:34:55;30.71;28.48
67133;HTU21D;54052;53.542;49.408;2022-08-23T08:37:21;30.83;27.94
67133;HTU21D;54052;53.542;49.408;2022-08-23T08:39:47;30.90;27.95
67133;HTU21D;54052;53.542;49.408;2022-08-23T08:42:26;30.76;28.00
67133;HTU21D;54052;53.542;49.408;2022-08-23T08:45:23;30.72;27.10
67133;HTU21D;54052;53.542;49.408;2022-08-23T08:47:59;30.67;27.78
67133;HTU21D;54052;53.542;49.408;2022-08-23T08:50:37;30.75;27.86
67133;HTU21D;54052;53.542;49.408;2022-08-23T08:53:27;30.90;28.53
67133;HTU21D;54052;53.542;49.408;2022-08-23T08:56:02;30.98;26.62
67133;HTU21D;54052;53.542;49.408;2022-08-23T08:58:52;31.02;27.49
67133;HTU21D;54052;53.542;49.408;2022-08-23T09:01:21;31.20;26.76
67133;HTU21D;54052;53.542;49.408;2022-08-23T09:03:48;31.31;26.85
67133;HTU21D;54052;53.542;49.408;2022-08-23T09:12:30;31.05;28.10
67133;HTU21D;54052;53.542;49.408;2022-08-23T09:19:55;30.74;28.37
67133;HTU21D;54052;53.542;49.408;2022-08-23T09:22:37;30.60;28.36
67133;HTU21D;54052;53.542;49.408;2022-08-23T09:25:06;30.45;28.90
67133;HTU21D;54052;53.542;49.408;2022-08-23T09:27:32;30.30;28.95
67133;HTU21D;54052;53.542;49.408;2022-08-23T09:29:59;30.13;29.64
67133;HTU21D;54052;53.542;49.408;2022-08-23T09:32:34;30.02;30.44
67133;HTU21D;54052;53.542;49.408;2022-08-23T09:35:28;29.96;30.22
67133;HTU21D;54052;53.542;49.408;2022-08-23T09:38:01;29.92;30.03
67133;HTU21D;54052;53.542;49.408;2022-08-23T09:40:32;29.90;29.86
67133;HTU21D;54052;53.542;49.408;2022-08-23T09:43:09;29.89;29.81
67133;HTU21D;54052;53.542;49.408;2022-08-23T09:45:39;29.90;29.32
67133;HTU21D;54052;53.542;49.408;2022-08-23T09:48:08;30.03;29.27
67133;HTU21D;54052;53.542;49.408;2022-08-23T09:50:40;30.12;29.32
67133;HTU21D;54052;53.542;49.408;2022-08-23T09:53:11;30.15;30.03
67133;HTU21D;54052;53.542;49.408;2022-08-23T09:55:51;30.31;29.85
67133;HTU21D;54052;53.542;49.408;2022-08-23T09:58:35;30.45;29.01
67133;HTU21D;54052;53.542;49.408;2022-08-23T10:01:22;30.56;28.16
67133;HTU21D;54052;53.542;49.408;2022-08-23T10:04:11;30.76;28.08
67133;HTU21D;54052;53.542;49.408;2022-08-23T10:06:39;30.91;27.82
67133;HTU21D;54052;53.542;49.408;2022-08-23T10:09:08;31.02;27.54
67133;HTU21D;54052;53.542;49.408;2022-08-23T10:11:41;31.12;27.30
67133;HTU21D;54052;53.542;49.408;2022-08-23T10:14:15;31.18;27.25
67133;HTU21D;54052;53.542;49.408;2022-08-23T10:22:45;30.90;28.09
67133;HTU21D;54052;53.542;49.408;2022-08-23T10:25:40;30.84;28.13
67133;HTU21D;54052;53.542;49.408;2022-08-23T10:28:17;30.72;28.17
67133;HTU21D;54052;53.542;49.408;2022-08-23T10:31:21;30.63;28.13
67133;HTU21D;54052;53.542;49.408;2022-08-23T10:34:10;30.67;27.04
67133;HTU21D;54052;53.542;49.408;2022-08-23T10:39:27;30.81;27.51
67133;HTU21D;54052;53.542;49.408;2022-08-23T10:42:04;30.83;28.42
67133;HTU21D;54052;53.542;49.408;2022-08-23T10:47:34;30.85;27.33
67133;HTU21D;54052;53.542;49.408;2022-08-23T10:50:11;30.93;26.76
67133;HTU21D;54052;53.542;49.408;2022-08-23T10:52:53;30.95;28.23
67133;HTU21D;54052;53.542;49.408;2022-08-23T10:55:25;30.77;27.41
67133;HTU21D;54052;53.542;49.408;2022-08-23T10:58:13;30.54;27.55
67133;HTU21D;54052;53.542;49.408;2022-08-23T11:00:40;30.36;27.87
67133;HTU21D;54052;53.542;49.408;2022-08-23T11:06:26;30.03;28.12
67133;HTU21D;54052;53.542;49.408;2022-08-23T11:11:39;30.19;27.70
67133;HTU21D;54052;53.542;49.408;2022-08-23T11:14:10;30.36;27.45
67133;HTU21D;54052;53.542;49.408;2022-08-23T11:16:37;30.51;26.55
67133;HTU21D;54052;53.542;49.408;2022-08-23T11:19:11;30.61;26.08
67133;HTU21D;54052;53.542;49.408;2022-08-23T11:31:38;30.95;24.61
67133;HTU21D;54052;53.542;49.408;2022-08-23T11:34:18;30.96;26.26
67133;HTU21D;54052;53.542;49.408;2022-08-23T11:44:56;31.10;25.52
67133;HTU21D;54052;53.542;49.408;2022-08-23T11:47:39;31.16;25.78
67133;HTU21D;54052;53.542;49.408;2022-08-23T11:50:23;31.23;24.55
67133;HTU21D;54052;53.542;49.408;2022-08-23T11:58:29;31.35;24.08
67133;HTU21D;54052;53.542;49.408;2022-08-23T12:01:13;31.34;23.41
67133;HTU21D;54052;53.542;49.408;2022-08-23T12:03:59;31.31;22.92
67133;HTU21D;54052;53.542;49.408;2022-08-23T12:06:40;31.26;23.69
67133;HTU21D;54052;53.542;49.408;2022-08-23T12:17:00;31.20;24.75
67133;HTU21D;54052;53.542;49.408;2022-08-23T12:25:21;31.19;25.03
67133;HTU21D;54052;53.542;49.408;2022-08-23T12:28:04;31.28;24.19
67133;HTU21D;54052;53.542;49.408;2022-08-23T12:30:54;31.30;28.03
67133;HTU21D;54052;53.542;49.408;2022-08-23T12:33:40;31.29;28.15
67133;HTU21D;54052;53.542;49.408;2022-08-23T12:41:34;31.45;27.97
67133;HTU21D;54052;53.542;49.408;2022-08-23T12:44:07;31.45;29.75
67133;HTU21D;54052;53.542;49.408;2022-08-23T12:46:41;31.42;27.42
67133;HTU21D;54052;53.542;49.408;2022-08-23T12:49:10;31.42;25.25
67133;HTU21D;54052;53.542;49.408;2022-08-23T12:51:51;31.39;24.01
67133;HTU21D;54052;53.542;49.408;2022-08-23T12:54:22;31.39;23.17
67133;HTU21D;54052;53.542;49.408;2022-08-23T12:56:51;31.41;23.70
67133;HTU21D;54052;53.542;49.408;2022-08-23T13:02:02;31.39;22.26
67133;HTU21D;54052;53.542;49.408;2022-08-23T13:04:30;31.44;22.72
67133;HTU21D;54052;53.542;49.408;2022-08-23T13:07:01;31.35;21.79
67133;HTU21D;54052;53.542;49.408;2022-08-23T13:09:33;31.29;21.33
67133;HTU21D;54052;53.542;49.408;2022-08-23T13:11:59;31.38;22.67
67133;HTU21D;54052;53.542;49.408;2022-08-23T13:17:28;31.34;22.06
67133;HTU21D;54052;53.542;49.408;2022-08-23T13:22:29;31.26;25.81
67133;HTU21D;54052;53.542;49.408;2022-08-23T13:25:08;31.20;27.71
67133;HTU21D;54052;53.542;49.408;2022-08-23T13:32:39;30.74;29.80
67133;HTU21D;54052;53.542;49.408;2022-08-23T13:38:44;30.80;28.13
67133;HTU21D;54052;53.542;49.408;2022-08-23T13:43:37;30.94;27.80
67133;HTU21D;54052;53.542;49.408;2022-08-23T13:46:24;30.98;29.22
67133;HTU21D;54052;53.542;49.408;2022-08-23T13:52:11;30.81;23.88
67133;HTU21D;54052;53.542;49.408;2022-08-23T13:54:38;30.76;23.10
67133;HTU21D;54052;53.542;49.408;2022-08-23T13:57:12;30.71;23.76
67133;HTU21D;54052;53.542;49.408;2022-08-23T13:59:40;30.66;23.76
67133;HTU21D;54052;53.542;49.408;2022-08-23T14:02:12;30.61;23.56
67133;HTU21D;54052;53.542;49.408;2022-08-23T14:04:41;30.57;23.70
67133;HTU21D;54052;53.542;49.408;2022-08-23T14:07:07;30.57;23.88
67133;HTU21D;54052;53.542;49.408;2022-08-23T14:09:34;30.53;28.65
67133;HTU21D;54052;53.542;49.408;2022-08-23T14:12:04;30.45;30.30
67133;HTU21D;54052;53.542;49.408;2022-08-23T14:14:33;30.39;31.23
67133;HTU21D;54052;53.542;49.408;2022-08-23T14:16:59;30.37;31.39
67133;HTU21D;54052;53.542;49.408;2022-08-23T14:19:25;30.36;30.47
67133;HTU21D;54052;53.542;49.408;2022-08-23T14:21:51;30.33;30.10
67133;HTU21D;54052;53.542;49.408;2022-08-23T14:24:18;30.32;30.83
67133;HTU21D;54052;53.542;49.408;2022-08-23T14:26:44;30.13;31.88
67133;HTU21D;54052;53.542;49.408;2022-08-23T14:29:10;30.09;30.03
67133;HTU21D;54052;53.542;49.408;2022-08-23T14:31:36;30.06;31.00
67133;HTU21D;54052;53.542;49.408;2022-08-23T14:34:02;30.01;33.04
67133;HTU21D;54052;53.542;49.408;2022-08-23T14:36:28;29.88;34.64
67133;HTU21D;54052;53.542;49.408;2022-08-23T14:38:54;29.75;34.60
67133;HTU21D;54052;53.542;49.408;2022-08-23T14:41:22;29.68;35.08
67133;HTU21D;54052;53.542;49.408;2022-08-23T14:43:50;29.62;33.43
67133;HTU21D;54052;53.542;49.408;2022-08-23T14:46:21;29.54;33.72
67133;HTU21D;54052;53.542;49.408;2022-08-23T14:48:48;29.47;29.86
67133;HTU21D;54052;53.542;49.408;2022-08-23T14:51:26;29.38;31.93
67133;HTU21D;54052;53.542;49.408;2022-08-23T14:53:53;29.32;30.20
67133;HTU21D;54052;53.542;49.408;2022-08-23T14:56:20;29.22;32.21
67133;HTU21D;54052;53.542;49.408;2022-08-23T14:58:47;29.13;30.80
67133;HTU21D;54052;53.542;49.408;2022-08-23T15:01:14;28.97;30.87
67133;HTU21D;54052;53.542;49.408;2022-08-23T15:04:00;28.83;30.11
67133;HTU21D;54052;53.542;49.408;2022-08-23T15:06:26;28.74;30.58
67133;HTU21D;54052;53.542;49.408;2022-08-23T15:08:52;28.64;33.79
67133;HTU21D;54052;53.542;49.408;2022-08-23T15:11:18;28.54;33.51
67133;HTU21D;54052;53.542;49.408;2022-08-23T15:13:45;28.39;31.28
67133;HTU21D;54052;53.542;49.408;2022-08-23T15:16:15;28.29;31.45
67133;HTU21D;54052;53.542;49.408;2022-08-23T15:18:45;28.19;31.86
67133;HTU21D;54052;53.542;49.408;2022-08-23T15:21:11;28.13;32.44
67133;HTU21D;54052;53.542;49.408;2022-08-23T15:23:37;28.01;31.97
67133;HTU21D;54052;53.542;49.408;2022-08-23T15:26:04;27.95;32.73
67133;HTU21D;54052;53.542;49.408;2022-08-23T15:28:30;27.80;35.11
67133;HTU21D;54052;53.542;49.408;2022-08-23T15:30:56;27.64;33.67
67133;HTU21D;54052;53.542;49.408;2022-08-23T15:33:22;27.47;34.25
67133;HTU21D;54052;53.542;49.408;2022-08-23T15:35:49;27.35;34.50
67133;HTU21D;54052;53.542;49.408;2022-08-23T15:38:22;27.13;36.18
67133;HTU21D;54052;53.542;49.408;2022-08-23T15:40:49;26.95;33.55
67133;HTU21D;54052;53.542;49.408;2022-08-23T15:43:16;26.93;33.23
67133;HTU21D;54052;53.542;49.408;2022-08-23T15:45:43;26.98;33.39
67133;HTU21D;54052;53.542;49.408;2022-08-23T15:48:22;27.02;34.63
67133;HTU21D;54052;53.542;49.408;2022-08-23T15:50:49;26.94;34.32
67133;HTU21D;54052;53.542;49.408;2022-08-23T15:53:15;26.78;34.34
67133;HTU21D;54052;53.542;49.408;2022-08-23T15:55:42;26.61;36.89
67133;HTU21D;54052;53.542;49.408;2022-08-23T15:58:17;26.45;35.47
67133;HTU21D;54052;53.542;49.408;2022-08-23T16:00:44;26.24;36.29
67133;HTU21D;54052;53.542;49.408;2022-08-23T16:03:10;26.10;36.16
67133;HTU21D;54052;53.542;49.408;2022-08-23T16:05:37;25.97;37.45
67133;HTU21D;54052;53.542;49.408;2022-08-23T16:08:05;25.83;36.59
67133;HTU21D;54052;53.542;49.408;2022-08-23T16:10:32;25.68;37.08
67133;HTU21D;54052;53.542;49.408;2022-08-23T16:12:58;25.52;37.22
67133;HTU21D;54052;53.542;49.408;2022-08-23T16:15:24;25.42;37.69
67133;HTU21D;54052;53.542;49.408;2022-08-23T16:17:50;25.32;37.17
67133;HTU21D;54052;53.542;49.408;2022-08-23T16:20:16;25.27;37.83
67133;HTU21D;54052;53.542;49.408;2022-08-23T16:22:42;25.17;40.60
67133;HTU21D;54052;53.542;49.408;2022-08-23T16:25:08;25.13;39.23
67133;HTU21D;54052;53.542;49.408;2022-08-23T16:27:35;25.04;39.97
67133;HTU21D;54052;53.542;49.408;2022-08-23T16:30:03;24.98;38.82
67133;HTU21D;54052;53.542;49.408;2022-08-23T16:32:29;24.91;37.62
67133;HTU21D;54052;53.542;49.408;2022-08-23T16:34:55;24.83;37.58
67133;HTU21D;54052;53.542;49.408;2022-08-23T16:37:21;24.73;38.00
67133;HTU21D;54052;53.542;49.408;2022-08-23T16:39:47;24.62;38.13
67133;HTU21D;54052;53.542;49.408;2022-08-23T16:42:15;24.57;38.41
67133;HTU21D;54052;53.542;49.408;2022-08-23T16:44:41;24.50;38.36
67133;HTU21D;54052;53.542;49.408;2022-08-23T16:47:07;24.46;40.83
67133;HTU21D;54052;53.542;49.408;2022-08-23T16:49:34;24.49;40.32
67133;HTU21D;54052;53.542;49.408;2022-08-23T16:52:03;24.54;41.80
67133;HTU21D;54052;53.542;49.408;2022-08-23T16:54:29;24.58;39.91
67133;HTU21D;54052;53.542;49.408;2022-08-23T16:56:55;24.58;43.45
67133;HTU21D;54052;53.542;49.408;2022-08-23T16:59:21;24.55;40.84
67133;HTU21D;54052;53.542;49.408;2022-08-23T17:01:51;24.53;41.85